createdAt,value
2018-12-05T00:00:14.068Z,81.30
2018-12-05T00:02:43.376Z,80.70
2018-12-05T00:05:12.968Z,80.50
2018-12-05T00:07:42.519Z,80.40
2018-12-05T00:10:11.766Z,80.40
2018-12-05T00:12:41.117Z,80.80
2018-12-05T00:15:10.434Z,81.10
2018-12-05T00:17:39.833Z,81.10
2018-12-05T00:20:09.093Z,80.00
2018-12-05T00:22:38.436Z,79.40
2018-12-05T00:25:07.768Z,79.10
2018-12-05T00:27:37.200Z,78.60
2018-12-05T00:30:06.661Z,78.40
2018-12-05T00:32:35.980Z,77.90
2018-12-05T00:35:05.529Z,78.30
2018-12-05T00:37:34.774Z,77.70
2018-12-05T00:40:04.485Z,77.70
2018-12-05T00:42:33.756Z,77.60
2018-12-05T00:45:03.223Z,77.20
2018-12-05T00:47:32.534Z,76.80
2018-12-05T00:50:02.712Z,76.60
2018-12-05T00:52:32.006Z,76.90
2018-12-05T00:55:01.285Z,76.70
2018-12-05T00:57:30.574Z,76.50
2018-12-05T00:59:59.814Z,76.40
2018-12-05T01:02:29.064Z,76.50
2018-12-05T01:04:58.321Z,76.30
2018-12-05T01:07:31.266Z,75.70
2018-12-05T01:10:01.056Z,76.20
2018-12-05T01:12:30.432Z,76.40
2018-12-05T01:14:59.645Z,76.00
2018-12-05T01:17:28.882Z,75.70
2018-12-05T01:19:58.133Z,76.20
2018-12-05T01:22:27.367Z,76.40
2018-12-05T01:24:56.539Z,76.50
2018-12-05T01:27:25.915Z,77.00
2018-12-05T01:29:56.101Z,76.90
2018-12-05T01:32:25.410Z,77.70
2018-12-05T01:34:54.657Z,78.30
2018-12-05T01:37:23.864Z,78.30
2018-12-05T01:39:53.104Z,78.80
2018-12-05T01:42:22.311Z,78.70
2018-12-05T01:44:55.852Z,78.70
2018-12-05T01:47:25.429Z,78.50
2018-12-05T01:50:03.399Z,79.30
2018-12-05T01:52:32.707Z,79.40
2018-12-05T01:55:01.940Z,79.20
2018-12-05T01:57:31.987Z,79.50
2018-12-05T02:00:01.320Z,80.00
2018-12-05T02:02:30.571Z,80.40
2018-12-05T02:04:59.792Z,80.60
2018-12-05T02:07:29.007Z,81.20
2018-12-05T02:09:58.287Z,81.70
2018-12-05T02:12:27.732Z,81.40
2018-12-05T02:14:57.037Z,81.80
2018-12-05T02:17:26.272Z,82.10
2018-12-05T02:19:55.644Z,82.70
2018-12-05T02:22:24.858Z,83.10
2018-12-05T02:24:54.541Z,83.30
2018-12-05T02:27:23.842Z,83.30
2018-12-05T02:29:59.134Z,83.80
2018-12-05T02:32:28.699Z,84.30
2018-12-05T02:34:57.974Z,84.30
2018-12-05T02:37:27.179Z,84.30
2018-12-05T02:39:57.417Z,84.30
2018-12-05T02:42:26.684Z,84.60
2018-12-05T02:44:57.394Z,84.70
2018-12-05T02:47:27.024Z,84.90
2018-12-05T02:49:56.278Z,85.90
2018-12-05T02:52:25.670Z,85.50
2018-12-05T02:54:54.897Z,85.70
2018-12-05T02:57:24.124Z,85.60
2018-12-05T02:59:53.411Z,85.90
2018-12-05T03:02:22.638Z,86.10
2018-12-05T03:04:51.816Z,86.90
2018-12-05T03:07:21.004Z,87.10
2018-12-05T03:09:50.217Z,87.30
2018-12-05T03:12:19.886Z,87.30
2018-12-05T03:14:49.429Z,88.00
2018-12-05T03:17:18.712Z,88.20
2018-12-05T03:19:47.950Z,88.60
2018-12-05T03:22:17.130Z,89.20
2018-12-05T03:24:46.400Z,89.60
2018-12-05T03:27:15.724Z,90.00
2018-12-05T03:29:45.555Z,90.20
2018-12-05T03:32:14.823Z,90.20
2018-12-05T03:34:44.035Z,90.50
2018-12-05T03:37:13.364Z,90.90
2018-12-05T03:39:42.669Z,91.00
2018-12-05T03:42:11.939Z,91.10
2018-12-05T03:44:41.298Z,91.20
2018-12-05T03:47:10.601Z,91.40
2018-12-05T03:49:39.864Z,91.70
2018-12-05T03:52:09.126Z,91.80
2018-12-05T03:54:38.467Z,92.10
2018-12-05T03:57:07.816Z,92.50
2018-12-05T03:59:37.042Z,92.90
2018-12-05T04:02:06.301Z,93.10
2018-12-05T04:04:35.591Z,93.30
2018-12-05T04:07:04.815Z,93.70
2018-12-05T04:09:34.040Z,94.20
2018-12-05T04:12:03.315Z,94.40
2018-12-05T04:14:33.199Z,94.80
2018-12-05T04:17:02.422Z,95.30
2018-12-05T04:19:31.794Z,95.50
2018-12-05T04:22:01.066Z,95.60
2018-12-05T04:24:30.328Z,95.80
2018-12-05T04:26:59.622Z,95.70
2018-12-05T04:29:28.797Z,95.80
2018-12-05T04:31:58.086Z,96.00
2018-12-05T04:34:27.313Z,96.30
2018-12-05T04:36:56.508Z,96.40
2018-12-05T04:39:25.729Z,96.60
2018-12-05T04:41:55.687Z,96.60
2018-12-05T04:44:24.930Z,96.80
2018-12-05T04:46:54.528Z,97.00
2018-12-05T04:49:23.688Z,97.10
2018-12-05T04:51:53.023Z,97.30
2018-12-05T04:54:22.244Z,97.40
2018-12-05T04:56:51.525Z,97.40
2018-12-05T04:59:20.790Z,97.20
2018-12-05T05:01:51.417Z,97.50
2018-12-05T05:04:20.612Z,97.70
2018-12-05T05:06:49.844Z,97.80
2018-12-05T05:09:19.061Z,98.20
2018-12-05T05:11:48.246Z,98.50
2018-12-05T05:14:17.524Z,98.70
2018-12-05T05:16:46.895Z,98.80
2018-12-05T05:19:16.253Z,99.00
2018-12-05T05:21:45.526Z,99.20
2018-12-05T05:24:14.780Z,99.60
2018-12-05T05:26:44.037Z,99.80
2018-12-05T05:29:13.280Z,99.90
2018-12-05T05:31:42.479Z,99.90
2018-12-05T05:34:11.702Z,99.90
2018-12-05T05:36:41.306Z,99.90
2018-12-05T05:39:10.509Z,99.90
2018-12-05T05:41:39.818Z,99.90
2018-12-05T05:44:10.276Z,99.90
2018-12-05T05:46:40.090Z,99.90
2018-12-05T05:49:09.370Z,99.90
2018-12-05T05:51:38.595Z,99.90
2018-12-05T05:54:07.782Z,99.90
2018-12-05T05:56:37.044Z,99.90
2018-12-05T05:59:06.377Z,99.90
2018-12-05T06:01:35.594Z,99.90
2018-12-05T06:04:04.814Z,99.90
2018-12-05T06:06:34.072Z,99.90
2018-12-05T06:09:03.581Z,99.90
2018-12-05T06:11:32.827Z,99.90
2018-12-05T06:14:02.064Z,99.90
2018-12-05T06:16:31.314Z,99.90
2018-12-05T06:19:00.894Z,99.90
2018-12-05T06:21:30.102Z,99.90
2018-12-05T06:23:59.418Z,99.90
2018-12-05T06:26:28.788Z,99.90
2018-12-05T06:28:57.976Z,99.90
2018-12-05T06:31:27.406Z,99.90
2018-12-05T06:33:56.709Z,99.90
2018-12-05T06:36:26.130Z,99.90
2018-12-05T06:38:55.340Z,99.90
2018-12-05T06:41:24.486Z,99.90
2018-12-05T06:43:53.875Z,99.90
2018-12-05T06:46:23.091Z,99.90
2018-12-05T06:48:52.317Z,99.90
2018-12-05T06:51:21.548Z,99.90
2018-12-05T06:53:51.457Z,99.90
2018-12-05T06:56:20.739Z,99.90
2018-12-05T06:58:49.915Z,99.90
2018-12-05T07:01:19.098Z,99.90
2018-12-05T07:03:48.463Z,99.90
2018-12-05T07:06:17.733Z,99.90
2018-12-05T07:08:46.977Z,99.90
2018-12-05T07:11:16.188Z,99.90
2018-12-05T07:13:45.501Z,99.90
2018-12-05T07:16:14.732Z,99.90
2018-12-05T07:18:44.052Z,99.90
2018-12-05T07:21:13.679Z,99.90
2018-12-05T07:23:42.855Z,99.90
2018-12-05T07:26:12.042Z,99.90
2018-12-05T07:28:41.360Z,99.90
2018-12-05T07:31:10.566Z,99.90
2018-12-05T07:33:39.808Z,99.90
2018-12-05T07:36:09.021Z,99.90
2018-12-05T07:38:38.388Z,99.90
2018-12-05T07:41:07.578Z,99.90
2018-12-05T07:43:36.746Z,99.90
2018-12-05T07:46:05.958Z,99.90
2018-12-05T07:48:35.217Z,99.90
2018-12-05T07:51:04.432Z,99.90
2018-12-05T07:53:33.606Z,99.90
2018-12-05T07:56:02.806Z,99.90
2018-12-05T07:58:32.304Z,99.90
2018-12-05T08:01:01.529Z,99.90
2018-12-05T08:03:30.751Z,99.90
2018-12-05T08:05:59.952Z,99.90
2018-12-05T08:08:29.216Z,99.90
2018-12-05T08:10:58.540Z,99.90
2018-12-05T08:13:27.725Z,99.90
2018-12-05T08:15:56.957Z,99.90
2018-12-05T08:18:26.170Z,99.90
2018-12-05T08:20:55.693Z,99.90
2018-12-05T08:23:25.149Z,99.90
2018-12-05T08:25:54.343Z,99.90
2018-12-05T08:28:23.507Z,99.90
2018-12-05T08:30:52.716Z,99.90
2018-12-05T08:33:21.960Z,99.90
2018-12-05T08:35:51.234Z,99.90
2018-12-05T08:38:20.416Z,99.90
2018-12-05T08:40:49.585Z,99.90
2018-12-05T08:43:19.075Z,99.90
2018-12-05T08:45:48.289Z,99.90
2018-12-05T08:48:17.510Z,99.90
2018-12-05T08:50:46.781Z,99.90
2018-12-05T08:53:16.053Z,99.90
2018-12-05T08:55:45.256Z,99.90
2018-12-05T08:58:14.417Z,99.90
2018-12-05T09:00:43.688Z,99.90
2018-12-05T09:03:12.905Z,99.90
2018-12-05T09:05:42.172Z,99.90
2018-12-05T09:08:11.342Z,99.90
2018-12-05T09:10:40.545Z,99.90
2018-12-05T09:13:09.741Z,99.90
2018-12-05T09:15:38.960Z,99.90
2018-12-05T09:18:08.114Z,99.90
2018-12-05T09:20:37.383Z,99.90
2018-12-05T09:23:06.580Z,99.90
2018-12-05T09:25:36.546Z,99.90
2018-12-05T09:28:07.763Z,99.90
2018-12-05T09:30:37.188Z,99.90
2018-12-05T09:33:06.409Z,99.90
2018-12-05T09:35:35.575Z,99.90
2018-12-05T09:38:04.815Z,99.90
2018-12-05T09:40:34.969Z,99.90
2018-12-05T09:43:04.162Z,99.90
2018-12-05T09:45:33.441Z,99.90
2018-12-05T09:48:02.735Z,99.90
2018-12-05T09:50:32.054Z,99.90
2018-12-05T09:53:01.267Z,99.90
2018-12-05T09:55:30.483Z,99.90
2018-12-05T09:57:59.710Z,99.90
2018-12-05T10:00:29.434Z,99.90
2018-12-05T10:02:58.584Z,99.90
2018-12-05T10:05:27.779Z,99.90
2018-12-05T10:07:57.042Z,99.90
2018-12-05T10:10:26.252Z,99.90
2018-12-05T10:12:55.650Z,99.90
2018-12-05T10:15:24.870Z,99.90
2018-12-05T10:17:54.084Z,99.90
2018-12-05T10:20:23.284Z,99.90
2018-12-05T10:22:52.517Z,99.90
2018-12-05T10:25:21.769Z,99.90
2018-12-05T10:27:51.509Z,99.90
2018-12-05T10:30:21.799Z,99.90
2018-12-05T10:32:51.045Z,99.90
2018-12-05T10:35:20.300Z,99.90
2018-12-05T10:37:49.569Z,99.90
2018-12-05T10:40:18.838Z,99.90
2018-12-05T10:42:48.084Z,99.90
2018-12-05T10:45:17.351Z,99.90
2018-12-05T10:47:46.698Z,99.90
2018-12-05T10:50:16.038Z,99.90
2018-12-05T10:52:45.267Z,99.90
2018-12-05T10:55:14.552Z,99.90
2018-12-05T10:57:43.838Z,99.90
2018-12-05T11:00:15.435Z,99.90
2018-12-05T11:05:59.458Z,99.90
2018-12-05T11:08:34.201Z,99.90
2018-12-05T11:11:08.830Z,99.90
2018-12-05T11:13:43.538Z,99.90
2018-12-05T11:19:26.491Z,99.90
2018-12-05T11:22:01.018Z,99.90
2018-12-05T11:24:35.795Z,99.90
2018-12-05T11:27:05.144Z,99.90
2018-12-05T11:29:34.503Z,99.90
2018-12-05T11:32:03.751Z,99.90
2018-12-05T11:34:33.004Z,99.90
2018-12-05T11:37:03.154Z,99.90
2018-12-05T11:39:32.412Z,99.90
2018-12-05T11:42:01.794Z,99.90
2018-12-05T11:44:30.996Z,99.90
2018-12-05T11:47:00.194Z,99.90
2018-12-05T11:49:30.496Z,99.90
2018-12-05T11:51:59.723Z,99.90
2018-12-05T11:54:29.133Z,99.90
2018-12-05T11:56:58.300Z,99.90
2018-12-05T11:59:27.659Z,99.90
2018-12-05T12:01:56.856Z,99.90
2018-12-05T12:04:26.094Z,99.90
2018-12-05T12:06:55.390Z,99.90
2018-12-05T12:09:24.603Z,99.90
2018-12-05T12:11:53.795Z,99.90
2018-12-05T12:14:23.023Z,99.90
2018-12-05T12:16:52.254Z,99.90
2018-12-05T12:19:21.541Z,99.90
2018-12-05T12:21:50.806Z,99.90
2018-12-05T12:24:20.135Z,99.90
2018-12-05T12:26:49.331Z,99.90
2018-12-05T12:29:18.605Z,99.90
2018-12-05T12:31:48.014Z,99.90
2018-12-05T12:34:17.270Z,99.90
2018-12-05T12:36:46.707Z,99.90
2018-12-05T12:39:16.866Z,99.90
2018-12-05T12:41:46.102Z,99.90
2018-12-05T12:44:15.409Z,99.90
2018-12-05T12:46:44.616Z,99.90
2018-12-05T12:49:13.865Z,99.90
2018-12-05T12:51:43.121Z,99.90
2018-12-05T12:54:12.352Z,99.90
2018-12-05T12:56:41.641Z,99.90
2018-12-05T12:59:10.887Z,99.90
2018-12-05T13:01:40.062Z,99.90
2018-12-05T13:04:09.258Z,99.90
2018-12-05T13:06:38.466Z,99.90
2018-12-05T13:09:08.553Z,99.90
2018-12-05T13:11:37.804Z,99.90
2018-12-05T13:14:07.014Z,99.90
2018-12-05T13:16:36.227Z,99.90
2018-12-05T13:19:05.471Z,99.90
2018-12-05T13:21:34.726Z,99.90
2018-12-05T13:24:04.008Z,99.90
2018-12-05T13:26:33.249Z,99.90
2018-12-05T13:29:02.508Z,99.90
2018-12-05T13:31:31.699Z,99.90
2018-12-05T13:34:01.034Z,99.90
2018-12-05T13:36:30.556Z,99.90
2018-12-05T13:38:59.800Z,99.90
2018-12-05T13:41:29.072Z,99.90
2018-12-05T13:43:58.365Z,99.90
2018-12-05T13:46:30.143Z,99.90
2018-12-05T13:51:32.798Z,99.90
2018-12-05T13:54:02.172Z,99.90
2018-12-05T13:56:31.487Z,99.90
2018-12-05T13:59:00.737Z,99.90
2018-12-05T14:01:30.027Z,99.90
2018-12-05T14:03:59.289Z,99.90
2018-12-05T14:06:28.569Z,99.90
2018-12-05T14:08:57.796Z,99.90
2018-12-05T14:11:27.317Z,99.90
2018-12-05T14:13:57.195Z,99.90
2018-12-05T14:16:26.433Z,99.90
2018-12-05T14:18:55.682Z,99.90
2018-12-05T14:21:25.096Z,99.90
2018-12-05T14:23:54.302Z,99.90
2018-12-05T14:26:23.530Z,99.90
2018-12-05T14:28:52.776Z,99.90
2018-12-05T14:31:22.054Z,99.90
2018-12-05T14:33:51.553Z,99.90
2018-12-05T14:36:20.861Z,99.90
2018-12-05T14:38:50.124Z,99.90
2018-12-05T14:41:19.406Z,99.90
2018-12-05T14:43:48.666Z,99.90
2018-12-05T14:46:18.002Z,99.90
2018-12-05T14:48:47.368Z,99.90
2018-12-05T14:51:16.587Z,99.90
2018-12-05T14:53:46.918Z,99.90
2018-12-05T14:56:16.304Z,99.90
2018-12-05T14:58:45.687Z,99.90
2018-12-05T15:01:15.008Z,99.90
2018-12-05T15:03:44.427Z,99.50
2018-12-05T15:06:13.643Z,99.10
2018-12-05T15:08:42.924Z,98.30
2018-12-05T15:11:12.235Z,98.30
2018-12-05T15:13:41.617Z,97.40
2018-12-05T15:16:11.286Z,96.30
2018-12-05T15:18:40.471Z,95.40
2018-12-05T15:21:09.726Z,94.60
2018-12-05T15:23:39.037Z,93.50
2018-12-05T15:26:08.330Z,92.60
2018-12-05T15:28:37.714Z,91.50
2018-12-05T15:31:07.048Z,90.60
2018-12-05T15:33:36.398Z,89.90
2018-12-05T15:36:05.886Z,89.00
2018-12-05T15:38:36.371Z,86.70
2018-12-05T15:41:05.744Z,88.30
2018-12-05T15:43:35.033Z,84.40
2018-12-05T15:46:04.394Z,82.30
2018-12-05T15:48:33.708Z,80.40
2018-12-05T15:51:03.042Z,78.50
2018-12-05T15:53:32.493Z,78.60
2018-12-05T15:56:01.731Z,77.70
2018-12-05T15:58:31.290Z,76.30
2018-12-05T16:01:00.643Z,75.20
2018-12-05T16:03:29.908Z,74.60
2018-12-05T16:05:59.163Z,73.60
2018-12-05T16:08:28.351Z,74.30
2018-12-05T16:10:57.743Z,74.50
2018-12-05T16:13:26.996Z,73.60
2018-12-05T16:15:56.460Z,72.30
2018-12-05T16:18:26.650Z,71.30
2018-12-05T16:20:56.114Z,71.30
2018-12-05T16:23:25.939Z,70.00
2018-12-05T16:25:55.407Z,69.70
2018-12-05T16:28:24.855Z,67.40
2018-12-05T16:30:54.637Z,66.00
2018-12-05T16:33:23.966Z,66.30
2018-12-05T16:35:53.268Z,66.90
2018-12-05T16:38:22.530Z,64.50
2018-12-05T16:40:51.757Z,64.60
2018-12-05T16:43:21.328Z,64.70
2018-12-05T16:45:50.646Z,65.70
2018-12-05T16:48:20.775Z,65.20
2018-12-05T16:50:51.992Z,66.20
2018-12-05T16:53:21.520Z,65.50
2018-12-05T16:55:50.961Z,65.60
2018-12-05T16:58:20.302Z,65.30
2018-12-05T17:00:49.584Z,62.10
2018-12-05T17:03:18.871Z,63.90
2018-12-05T17:05:48.153Z,63.90
2018-12-05T17:08:17.461Z,61.90
2018-12-05T17:10:47.087Z,63.20
2018-12-05T17:13:16.353Z,62.10
2018-12-05T17:15:45.599Z,60.80
2018-12-05T17:18:14.899Z,59.70
2018-12-05T17:20:44.370Z,60.10
2018-12-05T17:23:16.118Z,59.30
2018-12-05T17:25:46.647Z,59.80
2018-12-05T17:28:15.984Z,58.40
2018-12-05T17:30:45.242Z,59.30
2018-12-05T17:33:14.510Z,58.90
2018-12-05T17:35:43.878Z,57.80
2018-12-05T17:38:13.709Z,57.80
2018-12-05T17:40:42.992Z,56.90
2018-12-05T17:43:12.302Z,57.20
2018-12-05T17:45:41.633Z,57.10
2018-12-05T17:48:10.863Z,57.00
2018-12-05T17:50:44.418Z,58.20
2018-12-05T17:53:13.687Z,58.40
2018-12-05T17:55:43.005Z,57.20
2018-12-05T17:58:12.374Z,57.40
2018-12-05T18:00:41.785Z,56.90
2018-12-05T18:03:10.979Z,56.50
2018-12-05T18:05:40.199Z,56.20
2018-12-05T18:08:09.753Z,56.00
2018-12-05T18:10:39.033Z,55.90
2018-12-05T18:13:10.210Z,55.70
2018-12-05T18:15:39.504Z,56.00
2018-12-05T18:18:08.734Z,56.20
2018-12-05T18:20:37.961Z,56.50
2018-12-05T18:23:12.614Z,55.70
2018-12-05T18:25:42.111Z,55.50
2018-12-05T18:28:13.072Z,54.90
2018-12-05T18:30:42.662Z,54.70
2018-12-05T18:33:11.921Z,54.20
2018-12-05T18:35:49.979Z,54.30
2018-12-05T18:38:19.438Z,54.80
2018-12-05T18:40:48.957Z,55.40
2018-12-05T18:43:18.300Z,55.40
2018-12-05T18:45:48.058Z,56.70
2018-12-05T18:48:17.975Z,56.90
2018-12-05T18:50:47.241Z,56.90
2018-12-05T18:53:16.578Z,57.80
2018-12-05T18:55:45.838Z,55.70
2018-12-05T18:58:15.179Z,57.80
2018-12-05T19:00:44.400Z,58.10
2018-12-05T19:03:13.857Z,57.80
2018-12-05T19:05:46.515Z,57.50
2018-12-05T19:08:16.085Z,55.00
2018-12-05T19:10:45.250Z,56.50
2018-12-05T19:13:14.448Z,55.80
2018-12-05T19:15:43.761Z,55.80
2018-12-05T19:18:13.041Z,56.70
2018-12-05T19:20:42.287Z,56.50
2018-12-05T19:23:11.808Z,56.40
2018-12-05T19:25:41.241Z,56.60
2018-12-05T19:28:10.535Z,55.50
2018-12-05T19:30:40.032Z,55.50
2018-12-05T19:33:09.441Z,55.20
2018-12-05T19:35:38.719Z,55.40
2018-12-05T19:38:08.615Z,56.30
2018-12-05T19:40:38.009Z,55.80
2018-12-05T19:43:07.246Z,55.50
2018-12-05T19:45:36.688Z,54.60
2018-12-05T19:48:06.231Z,54.70
2018-12-05T19:50:36.818Z,54.30
2018-12-05T19:53:06.332Z,54.00
2018-12-05T19:55:35.660Z,54.70
2018-12-05T19:58:04.879Z,54.20
2018-12-05T20:00:34.063Z,53.60
2018-12-05T20:03:03.302Z,53.70
2018-12-05T20:05:32.935Z,52.80
2018-12-05T20:08:02.299Z,53.90
2018-12-05T20:10:31.585Z,53.30
2018-12-05T20:13:01.021Z,53.00
2018-12-05T20:15:30.478Z,53.50
2018-12-05T20:18:00.872Z,53.50
2018-12-05T20:20:30.178Z,53.60
2018-12-05T20:22:59.419Z,53.60
2018-12-05T20:25:28.696Z,52.80
2018-12-05T20:27:57.947Z,52.90
2018-12-05T20:30:27.163Z,52.60
2018-12-05T20:32:56.371Z,52.70
2018-12-05T20:35:27.511Z,52.50
2018-12-05T20:37:57.162Z,53.00
2018-12-05T20:40:26.643Z,52.80
2018-12-05T20:42:55.964Z,52.80
2018-12-05T20:45:25.167Z,53.00
2018-12-05T20:47:54.446Z,52.90
2018-12-05T20:50:23.814Z,53.30
2018-12-05T20:52:53.053Z,53.10
2018-12-05T20:55:22.574Z,53.00
2018-12-05T20:57:51.943Z,52.60
2018-12-05T21:00:21.206Z,52.90
2018-12-05T21:02:50.405Z,52.80
2018-12-05T21:05:21.076Z,53.40
2018-12-05T21:07:50.370Z,53.50
2018-12-05T21:10:19.758Z,54.90
2018-12-05T21:12:49.094Z,55.40
2018-12-05T21:15:18.699Z,54.70
2018-12-05T21:17:48.041Z,54.60
2018-12-05T21:20:17.656Z,54.20
2018-12-05T21:22:47.517Z,54.50
2018-12-05T21:25:20.287Z,55.40
2018-12-05T21:27:50.798Z,55.30
2018-12-05T21:30:20.258Z,54.00
2018-12-05T21:32:49.584Z,53.00
2018-12-05T21:35:19.690Z,53.60
2018-12-05T21:37:49.233Z,55.10
2018-12-05T21:40:18.472Z,55.80
2018-12-05T21:42:48.137Z,55.70
2018-12-05T21:45:18.553Z,55.80
2018-12-05T21:47:47.840Z,56.20
2018-12-05T21:50:17.202Z,56.50
2018-12-05T21:52:46.503Z,57.40
2018-12-05T21:55:15.736Z,58.20
2018-12-05T21:57:45.027Z,58.20
2018-12-05T22:00:14.451Z,58.80
2018-12-05T22:02:44.201Z,59.00
2018-12-05T22:05:13.647Z,58.80
2018-12-05T22:07:43.000Z,59.30
2018-12-05T22:10:12.486Z,59.90
2018-12-05T22:12:42.725Z,60.20
2018-12-05T22:15:12.082Z,60.60
2018-12-05T22:17:41.326Z,61.00
2018-12-05T22:20:10.671Z,61.50
2018-12-05T22:22:39.923Z,62.60
2018-12-05T22:25:09.202Z,61.80
2018-12-05T22:27:38.463Z,60.90
2018-12-05T22:30:08.858Z,61.30
2018-12-05T22:32:38.153Z,61.90
2018-12-05T22:35:07.657Z,62.50
2018-12-05T22:37:36.889Z,63.30
2018-12-05T22:40:08.468Z,63.70
2018-12-05T22:42:37.722Z,64.10
2018-12-05T22:45:07.293Z,64.30
2018-12-05T22:47:36.623Z,65.40
2018-12-05T22:50:06.492Z,64.80
2018-12-05T22:52:35.761Z,65.30
2018-12-05T22:55:05.432Z,66.20
2018-12-05T22:57:34.583Z,67.20
2018-12-05T23:00:05.569Z,68.20
2018-12-05T23:02:34.886Z,68.40
2018-12-05T23:05:06.245Z,69.00
2018-12-05T23:07:35.501Z,70.60
2018-12-05T23:10:06.393Z,70.80
2018-12-05T23:12:36.975Z,71.90
2018-12-05T23:15:06.367Z,74.00
2018-12-05T23:17:35.532Z,76.40
2018-12-05T23:20:07.225Z,78.00
2018-12-05T23:22:36.627Z,80.20
2018-12-05T23:25:05.948Z,80.80
2018-12-05T23:27:35.194Z,82.10
2018-12-05T23:30:05.047Z,81.80
2018-12-05T23:32:34.367Z,81.40
2018-12-05T23:35:03.677Z,81.80
2018-12-05T23:37:32.968Z,82.20
2018-12-05T23:40:04.310Z,82.40
2018-12-05T23:42:33.577Z,82.40
2018-12-05T23:45:02.894Z,82.40
2018-12-05T23:47:32.595Z,82.70
2018-12-05T23:50:01.814Z,82.50
2018-12-05T23:52:31.050Z,82.70
2018-12-05T23:55:00.270Z,84.10
2018-12-05T23:57:29.516Z,85.00
2018-12-05T23:59:58.781Z,85.00
